createdAt,value
2022-12-09T00:01:12.887Z,3.50
2022-12-09T00:03:41.049Z,3.13
2022-12-09T00:06:21.298Z,3.60
2022-12-09T00:08:49.875Z,3.40
2022-12-09T00:11:18.803Z,3.40
2022-12-09T00:13:50.083Z,3.37
2022-12-09T00:16:18.117Z,3.30
2022-12-09T00:18:45.875Z,3.50
2022-12-09T00:21:21.677Z,3.70
2022-12-09T00:23:50.017Z,3.53
2022-12-09T00:26:18.819Z,3.27
2022-12-09T00:28:46.590Z,3.30
2022-12-09T00:31:16.271Z,3.73
2022-12-09T00:33:44.532Z,3.33
2022-12-09T00:36:17.496Z,3.40
2022-12-09T00:38:45.063Z,3.10
2022-12-09T00:41:13.185Z,2.97
2022-12-09T00:43:41.733Z,3.40
2022-12-09T00:46:09.724Z,3.20
2022-12-09T00:48:39.731Z,3.23
2022-12-09T00:51:08.856Z,3.13
2022-12-09T00:53:36.307Z,3.30
2022-12-09T00:56:03.767Z,3.00
2022-12-09T00:58:30.990Z,3.73
2022-12-09T01:00:58.224Z,3.07
2022-12-09T01:03:25.930Z,3.23
2022-12-09T01:05:53.270Z,3.07
2022-12-09T01:08:20.504Z,3.80
2022-12-09T01:10:48.231Z,3.60
2022-12-09T01:13:16.948Z,3.07
2022-12-09T01:15:44.808Z,3.17
2022-12-09T01:18:12.635Z,3.60
2022-12-09T01:20:40.343Z,3.20
2022-12-09T01:23:07.744Z,3.20
2022-12-09T01:25:35.401Z,3.23
2022-12-09T01:28:02.854Z,3.33
2022-12-09T01:30:30.327Z,3.67
2022-12-09T01:32:57.558Z,3.30
2022-12-09T01:35:25.039Z,3.57
2022-12-09T01:37:52.481Z,3.70
2022-12-09T01:40:19.718Z,3.30
2022-12-09T01:42:47.420Z,3.33
2022-12-09T01:45:20.741Z,3.60
2022-12-09T01:48:06.129Z,3.77
2022-12-09T01:50:36.148Z,3.87
2022-12-09T01:53:03.849Z,3.60
2022-12-09T01:55:31.316Z,3.20
2022-12-09T01:57:58.864Z,3.30
2022-12-09T02:00:26.284Z,3.20
2022-12-09T02:02:56.529Z,3.03
2022-12-09T02:05:24.812Z,3.77
2022-12-09T02:07:52.968Z,3.53
2022-12-09T02:10:21.086Z,3.37
2022-12-09T02:13:07.006Z,3.30
2022-12-09T02:15:42.399Z,3.23
2022-12-09T02:18:23.121Z,4.30
2022-12-09T02:21:02.612Z,3.73
2022-12-09T02:23:41.489Z,3.77
2022-12-09T02:26:12.570Z,3.20
2022-12-09T02:28:58.084Z,3.70
2022-12-09T02:31:50.919Z,3.60
2022-12-09T02:34:23.215Z,3.10
2022-12-09T02:37:15.125Z,3.43
2022-12-09T02:39:55.166Z,4.20
2022-12-09T02:42:25.975Z,3.70
2022-12-09T02:44:53.919Z,4.00
2022-12-09T02:47:26.099Z,3.80
2022-12-09T02:49:59.419Z,3.80
2022-12-09T02:52:28.271Z,3.70
2022-12-09T02:54:56.143Z,3.70
2022-12-09T02:57:26.957Z,3.53
2022-12-09T02:59:54.301Z,3.43
2022-12-09T03:02:26.284Z,2.97
2022-12-09T03:05:23.869Z,3.40
2022-12-09T03:08:15.789Z,3.40
2022-12-09T03:11:06.448Z,2.97
2022-12-09T03:13:54.033Z,3.40
2022-12-09T03:16:26.297Z,3.80
2022-12-09T03:19:22.739Z,3.53
2022-12-09T03:21:54.675Z,3.60
2022-12-09T03:24:27.918Z,3.80
2022-12-09T03:26:56.562Z,3.80
2022-12-09T03:29:27.480Z,3.70
2022-12-09T03:31:57.085Z,3.50
2022-12-09T03:34:28.368Z,3.63
2022-12-09T03:36:58.424Z,3.60
2022-12-09T03:39:30.757Z,3.83
2022-12-09T03:42:01.720Z,3.03
2022-12-09T03:45:10.305Z,3.50
2022-12-09T03:47:38.362Z,3.67
2022-12-09T03:50:07.933Z,3.30
2022-12-09T03:52:57.215Z,3.20
2022-12-09T03:55:42.766Z,3.20
2022-12-09T03:58:12.543Z,3.40
2022-12-09T04:00:42.211Z,3.13
2022-12-09T04:03:13.801Z,3.07
2022-12-09T04:05:43.246Z,3.20
2022-12-09T04:08:11.458Z,3.33
2022-12-09T04:10:38.859Z,3.40
2022-12-09T04:13:06.252Z,3.33
2022-12-09T04:15:33.493Z,3.20
2022-12-09T04:18:00.921Z,3.37
2022-12-09T04:20:28.128Z,3.33
2022-12-09T04:22:56.465Z,3.70
2022-12-09T04:25:23.901Z,3.87
2022-12-09T04:27:51.154Z,3.30
2022-12-09T04:30:19.138Z,2.80
2022-12-09T04:32:46.753Z,3.53
2022-12-09T04:35:14.321Z,3.60
2022-12-09T04:37:41.533Z,3.57
2022-12-09T04:40:09.560Z,3.53
2022-12-09T04:42:37.136Z,3.17
2022-12-09T04:45:05.596Z,3.77
2022-12-09T04:47:34.372Z,3.97
2022-12-09T04:50:02.172Z,3.63
2022-12-09T04:52:29.551Z,3.77
2022-12-09T04:54:57.106Z,3.93
2022-12-09T04:57:24.831Z,3.97
2022-12-09T04:59:52.432Z,3.60
2022-12-09T05:02:19.856Z,3.87
2022-12-09T05:04:47.628Z,4.03
2022-12-09T05:07:15.433Z,4.10
2022-12-09T05:09:43.111Z,4.07
2022-12-09T05:12:10.470Z,3.53
2022-12-09T05:14:37.905Z,3.53
2022-12-09T05:17:05.275Z,4.03
2022-12-09T05:19:32.807Z,4.10
2022-12-09T05:22:00.440Z,3.43
2022-12-09T05:24:27.852Z,3.80
2022-12-09T05:26:55.387Z,3.90
2022-12-09T05:29:23.655Z,3.73
2022-12-09T05:31:51.949Z,3.73
2022-12-09T05:34:19.850Z,3.40
2022-12-09T05:36:47.510Z,4.13
2022-12-09T05:39:14.786Z,3.60
2022-12-09T05:41:43.471Z,3.93
2022-12-09T05:44:15.301Z,3.40
2022-12-09T05:46:42.731Z,3.73
2022-12-09T05:49:10.359Z,4.17
2022-12-09T05:51:37.916Z,3.60
2022-12-09T05:54:06.442Z,3.50
2022-12-09T05:56:34.358Z,3.40
2022-12-09T05:59:01.969Z,3.70
2022-12-09T06:01:30.060Z,3.30
2022-12-09T06:03:57.849Z,3.27
2022-12-09T06:06:31.493Z,3.70
2022-12-09T06:09:01.010Z,3.43
2022-12-09T06:11:29.138Z,3.40
2022-12-09T06:13:56.869Z,3.90
2022-12-09T06:16:24.595Z,3.33
2022-12-09T06:18:52.597Z,3.50
2022-12-09T06:21:20.926Z,3.63
2022-12-09T06:23:49.797Z,3.53
2022-12-09T06:26:20.419Z,3.60
2022-12-09T06:28:48.170Z,3.03
2022-12-09T06:31:15.753Z,3.10
2022-12-09T06:33:59.990Z,3.40
2022-12-09T06:36:29.608Z,3.20
2022-12-09T06:39:03.068Z,3.80
2022-12-09T06:41:35.823Z,3.67
2022-12-09T06:44:03.447Z,4.00
2022-12-09T06:46:31.356Z,3.77
2022-12-09T06:48:58.729Z,3.83
2022-12-09T06:51:27.414Z,3.90
2022-12-09T06:53:55.265Z,4.17
2022-12-09T06:56:23.260Z,3.67
2022-12-09T06:58:51.311Z,4.03
2022-12-09T07:01:23.834Z,3.93
2022-12-09T07:03:54.920Z,3.83
2022-12-09T07:06:28.263Z,3.87
2022-12-09T07:08:58.317Z,3.63
2022-12-09T07:11:25.757Z,3.30
2022-12-09T07:13:53.474Z,3.80
2022-12-09T07:16:21.254Z,3.13
2022-12-09T07:18:48.842Z,3.37
2022-12-09T07:21:18.886Z,2.43
2022-12-09T07:23:47.224Z,2.90
2022-12-09T07:26:15.644Z,3.00
2022-12-09T07:28:43.683Z,2.63
2022-12-09T07:31:23.575Z,2.70
2022-12-09T07:33:51.756Z,2.77
2022-12-09T07:36:22.181Z,2.70
2022-12-09T07:38:58.622Z,2.33
2022-12-09T07:41:27.307Z,2.90
2022-12-09T07:43:55.113Z,2.70
2022-12-09T07:46:24.753Z,2.83
2022-12-09T07:48:52.725Z,2.70
2022-12-09T07:51:21.047Z,2.90
2022-12-09T07:53:49.568Z,2.87
2022-12-09T07:56:18.542Z,2.50
2022-12-09T07:58:48.008Z,2.53
2022-12-09T08:01:18.721Z,3.07
2022-12-09T08:03:47.388Z,2.60
2022-12-09T08:06:17.534Z,2.97
2022-12-09T08:08:45.669Z,3.17
2022-12-09T08:11:19.751Z,2.83
2022-12-09T08:13:47.662Z,3.10
2022-12-09T08:16:17.811Z,3.00
2022-12-09T08:18:45.732Z,2.40
2022-12-09T08:21:16.859Z,3.10
2022-12-09T08:23:44.960Z,2.57
2022-12-09T08:26:17.736Z,2.60
2022-12-09T08:28:45.373Z,2.40
2022-12-09T08:31:16.858Z,2.77
2022-12-09T08:33:45.066Z,2.60
2022-12-09T08:36:15.212Z,2.70
2022-12-09T08:38:43.458Z,2.50
2022-12-09T08:41:22.168Z,2.50
2022-12-09T08:43:49.566Z,2.60
2022-12-09T08:46:17.876Z,2.30
2022-12-09T08:48:45.644Z,2.80
2022-12-09T08:51:13.205Z,5.10
2022-12-09T08:53:40.922Z,7.27
2022-12-09T08:56:13.793Z,6.80
2022-12-09T08:58:42.273Z,4.07
2022-12-09T09:01:21.725Z,3.03
2022-12-09T09:03:50.867Z,3.13
2022-12-09T09:06:19.329Z,2.87
2022-12-09T09:08:47.795Z,3.10
2022-12-09T09:11:20.869Z,3.03
2022-12-09T09:13:51.772Z,2.70
2022-12-09T09:16:25.465Z,3.03
2022-12-09T09:18:53.442Z,2.53
2022-12-09T09:21:24.246Z,2.67
2022-12-09T09:23:51.959Z,2.43
2022-12-09T09:26:24.009Z,2.70
2022-12-09T09:28:53.087Z,2.73
2022-12-09T09:31:22.186Z,2.63
2022-12-09T09:33:49.892Z,3.20
2022-12-09T09:36:23.966Z,3.03
2022-12-09T09:38:55.064Z,2.50
2022-12-09T09:41:38.606Z,2.50
2022-12-09T09:44:18.542Z,2.87
2022-12-09T09:46:48.942Z,2.43
2022-12-09T09:49:42.133Z,2.67
2022-12-09T09:52:20.506Z,2.10
2022-12-09T09:54:48.000Z,2.30
2022-12-09T09:57:41.159Z,2.43
2022-12-09T10:00:28.840Z,2.67
2022-12-09T10:03:27.159Z,2.70
2022-12-09T10:05:58.711Z,2.00
2022-12-09T10:08:41.593Z,2.50
2022-12-09T10:11:40.047Z,2.23
2022-12-09T10:14:47.915Z,1.80
2022-12-09T10:17:25.018Z,2.20
2022-12-09T10:20:03.773Z,1.97
2022-12-09T10:22:44.167Z,1.70
2022-12-09T10:25:22.987Z,1.87
2022-12-09T10:28:29.173Z,1.87
2022-12-09T10:30:57.282Z,1.90
2022-12-09T10:33:35.332Z,2.30
2022-12-09T10:36:04.239Z,1.93
2022-12-09T10:38:33.031Z,2.00
2022-12-09T10:41:49.433Z,2.17
2022-12-09T10:44:23.912Z,2.40
2022-12-09T10:47:05.067Z,2.40
2022-12-09T10:49:34.857Z,2.77
2022-12-09T10:52:05.523Z,2.57
2022-12-09T10:54:36.631Z,2.50
2022-12-09T10:57:17.072Z,2.90
2022-12-09T11:00:27.136Z,2.50
2022-12-09T11:02:57.529Z,2.20
2022-12-09T11:05:32.010Z,2.70
2022-12-09T11:08:00.803Z,3.03
2022-12-09T11:10:30.132Z,2.43
2022-12-09T11:13:05.502Z,2.30
2022-12-09T11:15:38.152Z,2.30
2022-12-09T11:18:22.088Z,2.57
2022-12-09T11:21:05.712Z,2.30
2022-12-09T11:23:35.623Z,2.20
2022-12-09T11:26:06.279Z,2.67
2022-12-09T11:28:39.369Z,2.20
2022-12-09T11:31:34.251Z,2.23
2022-12-09T11:34:20.806Z,2.10
2022-12-09T11:36:53.712Z,2.40
2022-12-09T11:39:34.818Z,2.10
2022-12-09T11:42:18.996Z,2.43
2022-12-09T11:45:06.371Z,2.00
2022-12-09T11:48:22.690Z,2.30
2022-12-09T11:50:32.793Z,2.30
2022-12-09T11:53:12.638Z,2.33
2022-12-09T11:56:08.394Z,2.53
2022-12-09T11:59:04.584Z,2.13
2022-12-09T12:02:06.796Z,1.90
2022-12-09T12:04:45.505Z,2.00
2022-12-09T12:07:19.202Z,2.17
2022-12-09T12:09:57.914Z,2.10
2022-12-09T12:12:46.671Z,2.27
2022-12-09T12:15:27.849Z,2.17
2022-12-09T12:17:56.830Z,2.00
2022-12-09T12:20:51.676Z,1.97
2022-12-09T12:23:43.930Z,1.70
2022-12-09T12:26:22.097Z,1.97
2022-12-09T12:29:20.367Z,1.73
2022-12-09T12:32:17.663Z,1.80
2022-12-09T12:35:10.572Z,2.00
2022-12-09T12:37:37.746Z,1.90
2022-12-09T12:40:11.746Z,1.90
2022-12-09T12:43:30.649Z,1.73
2022-12-09T12:46:19.692Z,2.00
2022-12-09T12:49:14.594Z,1.73
2022-12-09T12:52:54.344Z,1.97
2022-12-09T12:55:41.652Z,1.37
2022-12-09T12:58:33.193Z,1.50
2022-12-09T13:01:18.480Z,1.70
2022-12-09T13:04:10.167Z,2.00
2022-12-09T13:07:00.438Z,1.90
2022-12-09T13:10:14.896Z,2.00
2022-12-09T13:12:54.526Z,2.03
2022-12-09T13:15:27.631Z,1.70
2022-12-09T13:17:55.797Z,1.67
2022-12-09T13:20:32.992Z,2.00
2022-12-09T13:23:26.560Z,1.70
2022-12-09T13:26:12.318Z,2.00
2022-12-09T13:28:53.450Z,1.90
2022-12-09T13:31:28.216Z,1.87
2022-12-09T13:34:19.759Z,1.70
2022-12-09T13:36:48.794Z,2.00
2022-12-09T13:39:40.571Z,2.00
2022-12-09T13:42:46.375Z,2.00
2022-12-09T13:45:32.537Z,1.80
2022-12-09T13:48:22.421Z,1.90
2022-12-09T13:50:49.568Z,2.00
2022-12-09T13:53:19.475Z,2.10
2022-12-09T13:55:57.701Z,2.10
2022-12-09T13:58:49.804Z,1.70
2022-12-09T14:01:30.929Z,2.27
2022-12-09T14:04:01.110Z,2.10
2022-12-09T14:06:37.129Z,2.30
2022-12-09T14:09:20.376Z,2.03
2022-12-09T14:11:53.130Z,2.30
2022-12-09T14:14:26.173Z,2.23
2022-12-09T14:17:01.735Z,2.40
2022-12-09T14:19:33.919Z,2.20
2022-12-09T14:22:19.719Z,2.33
2022-12-09T14:25:18.940Z,2.07
2022-12-09T14:28:13.110Z,2.53
2022-12-09T14:30:50.856Z,2.10
2022-12-09T14:33:44.545Z,2.20
2022-12-09T14:36:14.640Z,1.80
2022-12-09T14:38:54.365Z,2.30
2022-12-09T14:41:48.640Z,1.80
2022-12-09T14:44:35.690Z,1.83
2022-12-09T14:47:32.518Z,1.97
2022-12-09T14:50:20.837Z,1.93
2022-12-09T14:53:07.511Z,2.00
2022-12-09T14:55:40.851Z,2.37
2022-12-09T14:58:19.216Z,2.17
2022-12-09T15:00:46.953Z,2.30
2022-12-09T15:03:33.877Z,2.43
2022-12-09T15:06:11.256Z,2.80
2022-12-09T15:08:41.622Z,2.37
2022-12-09T15:11:20.776Z,2.60
2022-12-09T15:13:51.750Z,2.50
2022-12-09T15:16:26.892Z,2.87
2022-12-09T15:18:55.009Z,2.80
2022-12-09T15:21:31.183Z,2.50
2022-12-09T15:24:00.199Z,2.97
2022-12-09T15:26:33.087Z,3.17
2022-12-09T15:29:05.187Z,2.80
2022-12-09T15:31:33.519Z,3.10
2022-12-09T15:34:11.205Z,2.90
2022-12-09T15:36:51.546Z,3.07
2022-12-09T15:39:32.569Z,3.40
2022-12-09T15:42:08.388Z,3.10
2022-12-09T15:44:38.309Z,3.40
2022-12-09T15:47:11.535Z,3.43
2022-12-09T15:49:50.896Z,2.90
2022-12-09T15:52:22.753Z,3.03
2022-12-09T15:54:50.981Z,2.87
2022-12-09T15:57:22.346Z,3.20
2022-12-09T15:59:57.268Z,3.07
2022-12-09T16:02:31.481Z,3.40
2022-12-09T16:05:04.158Z,2.93
2022-12-09T16:07:32.961Z,3.03
2022-12-09T16:10:13.580Z,2.93
2022-12-09T16:12:42.984Z,3.40
2022-12-09T16:15:13.753Z,2.90
2022-12-09T16:17:55.780Z,2.63
2022-12-09T16:20:41.271Z,3.30
2022-12-09T16:23:21.435Z,3.60
2022-12-09T16:25:50.010Z,3.57
2022-12-09T16:28:26.061Z,3.47
2022-12-09T16:31:00.241Z,3.53
2022-12-09T16:33:28.528Z,4.00
2022-12-09T16:36:04.928Z,3.70
2022-12-09T16:38:34.629Z,3.63
2022-12-09T16:41:08.130Z,3.63
2022-12-09T16:43:36.781Z,3.73
2022-12-09T16:46:36.367Z,3.47
2022-12-09T16:49:05.302Z,3.60
2022-12-09T16:51:33.266Z,3.77
2022-12-09T16:54:00.714Z,3.40
2022-12-09T16:56:31.353Z,3.67
2022-12-09T16:58:59.839Z,3.50
2022-12-09T17:01:34.979Z,3.63
2022-12-09T17:04:05.394Z,4.17
2022-12-09T17:06:32.763Z,3.97
2022-12-09T17:08:59.926Z,3.07
2022-12-09T17:11:27.165Z,3.57
2022-12-09T17:13:54.290Z,3.20
2022-12-09T17:16:26.859Z,2.93
2022-12-09T17:18:54.192Z,3.30
2022-12-09T17:21:21.530Z,3.10
2022-12-09T17:23:48.917Z,3.40
2022-12-09T17:26:18.435Z,3.40
2022-12-09T17:28:47.335Z,3.50
2022-12-09T17:31:17.779Z,3.40
2022-12-09T17:33:45.240Z,3.50
2022-12-09T17:36:14.702Z,3.30
2022-12-09T17:38:41.995Z,2.97
2022-12-09T17:41:16.001Z,2.87
2022-12-09T17:43:43.724Z,2.67
2022-12-09T17:46:12.466Z,2.80
2022-12-09T17:48:40.274Z,2.60
2022-12-09T17:51:09.183Z,2.60
2022-12-09T17:53:38.272Z,2.90
2022-12-09T17:56:14.150Z,2.50
2022-12-09T17:58:41.547Z,2.63
2022-12-09T18:01:20.528Z,2.47
2022-12-09T18:03:57.259Z,2.67
2022-12-09T18:06:27.807Z,2.53
2022-12-09T18:08:55.227Z,2.40
2022-12-09T18:11:22.782Z,2.50
2022-12-09T18:13:50.262Z,2.30
2022-12-09T18:16:17.865Z,2.40
2022-12-09T18:18:45.472Z,2.50
2022-12-09T18:21:15.895Z,2.50
2022-12-09T18:23:43.768Z,2.60
2022-12-09T18:26:15.981Z,2.80
2022-12-09T18:28:44.035Z,2.20
2022-12-09T18:31:14.959Z,2.43
2022-12-09T18:33:42.966Z,2.50
2022-12-09T18:36:13.324Z,2.30
2022-12-09T18:38:41.599Z,2.80
2022-12-09T18:41:17.706Z,2.80
2022-12-09T18:43:46.963Z,2.60
2022-12-09T18:46:21.365Z,2.53
2022-12-09T18:49:00.044Z,2.50
2022-12-09T18:51:28.221Z,2.30
2022-12-09T18:54:02.357Z,2.50
2022-12-09T18:56:29.710Z,2.43
2022-12-09T18:59:07.129Z,2.40
2022-12-09T19:01:41.167Z,2.50
2022-12-09T19:04:22.788Z,2.20
2022-12-09T19:06:52.091Z,2.30
2022-12-09T19:09:25.587Z,2.60
2022-12-09T19:11:53.705Z,2.43
2022-12-09T19:14:22.646Z,2.60
2022-12-09T19:16:51.369Z,2.70
2022-12-09T19:19:24.164Z,2.67
2022-12-09T19:21:51.935Z,2.73
2022-12-09T19:24:25.382Z,2.60
2022-12-09T19:26:56.640Z,2.70
2022-12-09T19:29:24.833Z,2.37
2022-12-09T19:31:54.014Z,2.57
2022-12-09T19:34:25.398Z,2.40
2022-12-09T19:36:54.534Z,2.43
2022-12-09T19:39:24.533Z,2.00
2022-12-09T19:41:52.256Z,2.60
2022-12-09T19:44:44.218Z,2.20
2022-12-09T19:47:10.228Z,2.40
2022-12-09T19:49:37.873Z,2.13
2022-12-09T19:52:05.127Z,2.27
2022-12-09T19:54:32.383Z,2.20
2022-12-09T19:56:59.721Z,2.37
2022-12-09T19:59:27.731Z,2.47
2022-12-09T20:01:55.359Z,2.50
2022-12-09T20:07:12.035Z,2.20
2022-12-09T20:09:39.968Z,2.37
2022-12-09T20:12:07.244Z,2.10
2022-12-09T20:14:34.534Z,2.60
2022-12-09T20:17:01.898Z,2.43
2022-12-09T20:19:29.681Z,2.37
2022-12-09T20:21:58.081Z,2.87
2022-12-09T20:24:26.469Z,2.50
2022-12-09T20:26:53.767Z,2.30
2022-12-09T20:29:20.956Z,2.43
2022-12-09T20:31:48.267Z,2.87
2022-12-09T20:34:16.621Z,2.07
2022-12-09T20:36:45.455Z,2.60
2022-12-09T20:39:19.688Z,2.60
2022-12-09T20:41:48.586Z,2.70
2022-12-09T20:44:16.875Z,2.70
2022-12-09T20:46:51.354Z,2.90
2022-12-09T20:49:26.776Z,2.77
2022-12-09T20:51:54.974Z,2.90
2022-12-09T20:54:22.396Z,3.00
2022-12-09T20:56:49.752Z,2.80
2022-12-09T20:59:17.262Z,2.70
2022-12-09T21:01:47.415Z,2.97
2022-12-09T21:04:15.660Z,2.90
2022-12-09T21:06:43.132Z,2.60
2022-12-09T21:09:14.192Z,3.00
2022-12-09T21:11:41.540Z,2.70
2022-12-09T21:14:10.628Z,2.70
2022-12-09T21:16:40.029Z,3.07
2022-12-09T21:19:11.006Z,3.23
2022-12-09T21:21:43.454Z,2.47
2022-12-09T21:24:12.253Z,2.60
2022-12-09T21:26:40.110Z,2.50
2022-12-09T21:29:08.538Z,3.10
2022-12-09T21:31:38.740Z,2.80
2022-12-09T21:34:07.789Z,2.50
2022-12-09T21:36:37.496Z,2.93
2022-12-09T21:39:06.059Z,2.83
2022-12-09T21:41:36.517Z,3.00
2022-12-09T21:44:05.103Z,3.17
2022-12-09T21:46:35.334Z,3.30
2022-12-09T21:49:04.765Z,2.87
2022-12-09T21:51:33.630Z,3.00
2022-12-09T21:54:02.244Z,3.23
2022-12-09T21:56:32.856Z,3.17
2022-12-09T21:59:00.679Z,2.90
2022-12-09T22:01:36.146Z,2.77
2022-12-09T22:04:06.096Z,3.17
2022-12-09T22:06:33.697Z,2.97
2022-12-09T22:09:02.425Z,3.53
2022-12-09T22:11:32.012Z,2.90
2022-12-09T22:14:00.733Z,3.27
2022-12-09T22:16:34.361Z,3.30
2022-12-09T22:19:03.016Z,3.00
2022-12-09T22:21:33.881Z,2.90
2022-12-09T22:24:04.316Z,3.00
2022-12-09T22:26:32.192Z,3.20
2022-12-09T22:29:01.166Z,2.93
2022-12-09T22:31:31.852Z,3.03
2022-12-09T22:34:10.846Z,2.73
2022-12-09T22:36:38.572Z,2.80
2022-12-09T22:39:09.915Z,2.73
2022-12-09T22:41:37.630Z,2.83
2022-12-09T22:44:05.322Z,2.80
2022-12-09T22:46:34.330Z,3.23
2022-12-09T22:49:04.843Z,2.70
2022-12-09T22:51:36.233Z,2.60
2022-12-09T22:54:06.187Z,3.00
2022-12-09T22:56:33.944Z,2.70
2022-12-09T22:59:01.227Z,2.97
2022-12-09T23:01:32.086Z,2.83
2022-12-09T23:04:00.473Z,2.60
2022-12-09T23:06:28.987Z,2.93
2022-12-09T23:08:56.748Z,2.77
2022-12-09T23:11:26.302Z,2.77
2022-12-09T23:13:54.052Z,3.27
2022-12-09T23:16:25.969Z,2.83
2022-12-09T23:18:56.353Z,3.10
2022-12-09T23:21:25.344Z,3.33
2022-12-09T23:23:54.751Z,3.73
2022-12-09T23:26:25.748Z,3.30
2022-12-09T23:28:55.262Z,3.70
2022-12-09T23:31:25.951Z,3.53
2022-12-09T23:33:53.972Z,3.60
2022-12-09T23:36:24.078Z,3.53
2022-12-09T23:38:53.051Z,3.43
2022-12-09T23:41:22.266Z,4.20
2022-12-09T23:43:50.435Z,3.73
2022-12-09T23:46:20.904Z,4.33
2022-12-09T23:48:49.420Z,4.03
2022-12-09T23:51:21.521Z,4.37
2022-12-09T23:53:50.668Z,4.03
2022-12-09T23:56:21.738Z,4.40
2022-12-09T23:58:56.550Z,4.67
